Time;durP1;ratioP1;P1;durP2;ratioP2;P2;SDS_P1;SDS_P2;PMS_P1;PMS_P2;Temp;Humidity;BMP_temperature;BMP_pressure;BME280_temperature;BME280_humidity;BME280_pressure;Samples;Min_cycle;Max_cycle;Signal;HPM_P1;HPM_P2
2021/01/31 00:00:26;;;;;;;10.93;6.93;;;2.00;99.90;;;;;;5114354;28;20195;-78
2021/01/31 00:02:53;;;;;;;10.80;6.57;;;2.00;99.90;;;;;;5114640;28;20199;-78
2021/01/31 00:05:22;;;;;;;10.53;6.77;;;2.00;99.90;;;;;;5114465;28;20289;-78
2021/01/31 00:07:49;;;;;;;11.80;6.80;;;2.00;99.90;;;;;;5114365;28;20247;-78
2021/01/31 00:10:18;;;;;;;11.23;7.00;;;2.00;99.90;;;;;;5114250;28;20212;-78
2021/01/31 00:12:44;;;;;;;11.93;7.17;;;2.00;99.90;;;;;;5113911;28;20236;-78
2021/01/31 00:15:15;;;;;;;10.90;6.67;;;1.90;99.90;;;;;;5114340;28;20252;-78
2021/01/31 00:17:42;;;;;;;11.30;7.30;;;2.00;99.90;;;;;;5114166;28;20567;-79
2021/01/31 00:20:10;;;;;;;14.70;7.90;;;2.00;99.90;;;;;;5113968;28;20566;-78
2021/01/31 00:22:36;;;;;;;12.37;7.23;;;2.00;99.90;;;;;;5113930;28;20659;-78
2021/01/31 00:25:04;;;;;;;10.83;7.10;;;2.00;99.90;;;;;;5113844;28;20635;-79
2021/01/31 00:27:30;;;;;;;11.60;6.83;;;2.00;99.90;;;;;;5113883;28;20246;-78
2021/01/31 00:29:56;;;;;;;13.53;7.53;;;2.00;99.90;;;;;;5113474;28;20664;-78
2021/01/31 00:32:24;;;;;;;12.13;6.70;;;2.00;99.90;;;;;;5113771;28;20211;-78
2021/01/31 00:34:52;;;;;;;10.80;5.93;;;2.00;99.90;;;;;;5113925;28;20194;-78
2021/01/31 00:37:20;;;;;;;10.80;6.53;;;2.00;99.90;;;;;;5113781;28;20214;-78
2021/01/31 00:39:47;;;;;;;12.10;5.93;;;2.10;99.90;;;;;;5113500;28;20593;-78
2021/01/31 00:42:16;;;;;;;12.37;7.47;;;2.00;99.90;;;;;;5115219;27;20200;-78
2021/01/31 00:44:44;;;;;;;11.60;7.23;;;2.00;99.90;;;;;;5125412;27;20198;-78
2021/01/31 00:47:11;;;;;;;11.20;6.77;;;2.00;99.90;;;;;;5118267;27;20203;-78
2021/01/31 00:49:38;;;;;;;12.73;7.37;;;1.90;99.90;;;;;;5130593;27;20562;-78
2021/01/31 00:52:05;;;;;;;13.63;7.33;;;1.90;99.90;;;;;;5113739;28;20621;-78
2021/01/31 00:54:32;;;;;;;10.73;7.20;;;1.80;99.90;;;;;;5113692;28;20229;-78
2021/01/31 00:56:58;;;;;;;14.60;8.17;;;1.70;99.90;;;;;;5113649;28;20603;-78
2021/01/31 00:59:24;;;;;;;17.80;8.20;;;1.60;99.90;;;;;;5113704;28;20257;-78
2021/01/31 01:01:51;;;;;;;13.43;7.10;;;1.60;99.90;;;;;;5113792;27;20195;-78
2021/01/31 01:04:17;;;;;;;13.67;7.70;;;1.50;99.90;;;;;;5113669;28;20201;-78
2021/01/31 01:06:45;;;;;;;14.50;7.87;;;1.50;99.90;;;;;;5113530;28;20202;-78
2021/01/31 01:09:12;;;;;;;14.47;7.70;;;1.40;99.90;;;;;;5113453;28;20206;-78
2021/01/31 01:11:39;;;;;;;13.67;8.50;;;1.30;99.90;;;;;;5113303;28;20216;-78
2021/01/31 01:14:05;;;;;;;12.73;7.67;;;1.30;99.90;;;;;;5113715;28;20293;-78
2021/01/31 01:16:32;;;;;;;15.03;8.33;;;1.30;99.90;;;;;;5113644;28;20289;-78
2021/01/31 01:18:58;;;;;;;15.33;8.27;;;1.30;99.90;;;;;;5113454;28;20275;-78
2021/01/31 01:21:24;;;;;;;12.50;8.00;;;1.20;99.90;;;;;;5113409;28;20226;-78
2021/01/31 01:23:51;;;;;;;12.17;7.83;;;1.20;99.90;;;;;;5113366;28;20204;-79
2021/01/31 01:26:18;;;;;;;15.43;8.43;;;1.00;99.90;;;;;;5113615;28;20203;-78
2021/01/31 01:28:44;;;;;;;14.53;7.70;;;1.00;99.90;;;;;;5113470;28;20285;-78
2021/01/31 01:31:10;;;;;;;14.93;8.70;;;0.90;99.90;;;;;;5113535;28;20190;-78
2021/01/31 01:33:37;;;;;;;14.30;8.17;;;0.90;99.90;;;;;;5113353;28;20290;-78
2021/01/31 01:36:04;;;;;;;14.10;8.20;;;0.80;99.90;;;;;;5113247;28;20285;-78
2021/01/31 01:38:30;;;;;;;14.33;7.97;;;0.90;99.90;;;;;;5113113;28;20696;-79
2021/01/31 01:40:57;;;;;;;13.53;8.27;;;0.80;99.90;;;;;;5115140;28;20285;-79
2021/01/31 01:43:25;;;;;;;16.03;8.67;;;0.80;99.90;;;;;;5116857;28;20200;-78
2021/01/31 01:46:13;;;;;;;15.63;9.40;;;0.80;99.90;;;;;;5117360;28;20255;-78
2021/01/31 01:48:40;;;;;;;14.27;8.13;;;0.80;99.90;;;;;;5117325;28;20195;-78
2021/01/31 01:51:07;;;;;;;16.87;9.30;;;0.70;99.90;;;;;;5117280;28;20196;-78
2021/01/31 01:53:33;;;;;;;14.83;9.20;;;0.70;99.90;;;;;;5117200;28;20194;-78
2021/01/31 01:56:06;;;;;;;16.17;8.77;;;0.70;99.90;;;;;;5117078;28;20281;-78
2021/01/31 01:58:33;;;;;;;15.73;8.50;;;0.70;99.90;;;;;;5117076;28;20322;-78
2021/01/31 02:01:02;;;;;;;14.10;8.70;;;0.70;99.90;;;;;;5116918;28;20205;-78
2021/01/31 02:03:31;;;;;;;17.67;9.30;;;0.60;99.90;;;;;;5116695;28;20805;-78
2021/01/31 02:06:02;;;;;;;18.33;10.03;;;0.70;99.90;;;;;;5116880;28;20234;-77
2021/01/31 02:08:28;;;;;;;17.03;9.43;;;0.70;99.90;;;;;;5116284;28;20194;-78
2021/01/31 02:10:55;;;;;;;16.17;8.40;;;0.60;99.90;;;;;;5116838;28;20569;-78
2021/01/31 02:13:21;;;;;;;15.67;9.27;;;0.60;99.90;;;;;;5116560;28;20203;-78
2021/01/31 02:15:50;;;;;;;16.63;9.57;;;0.60;99.90;;;;;;5116655;28;20284;-78
2021/01/31 02:18:28;;;;;;;13.83;8.57;;;0.60;99.90;;;;;;5116557;28;20221;-78
2021/01/31 02:21:27;;;;;;;16.53;9.50;;;0.50;99.90;;;;;;5116773;28;20210;-78
2021/01/31 02:24:23;;;;;;;17.13;8.47;;;0.50;99.90;;;;;;5116806;28;20303;-78
2021/01/31 02:27:24;;;;;;;15.10;8.53;;;0.50;99.90;;;;;;5089299;28;20197;-77
2021/01/31 02:30:39;;;;;;;22.17;9.07;;;0.50;99.90;;;;;;5116621;28;20200;-78
2021/01/31 02:33:28;;;;;;;13.33;8.30;;;0.40;99.90;;;;;;5079478;27;20198;-78
2021/01/31 02:36:03;;;;;;;15.07;8.93;;;0.40;99.90;;;;;;5116327;28;20194;-78
2021/01/31 02:38:36;;;;;;;16.67;9.90;;;0.40;99.90;;;;;;5116457;27;20320;-77
2021/01/31 02:41:06;;;;;;;15.93;9.73;;;0.40;99.90;;;;;;5116522;28;20664;-78
2021/01/31 02:43:39;;;;;;;15.80;9.40;;;0.40;99.90;;;;;;5116364;28;20667;-78
2021/01/31 02:46:22;;;;;;;14.73;8.60;;;0.30;99.90;;;;;;5116263;28;20198;-78
2021/01/31 02:48:57;;;;;;;17.70;9.50;;;0.20;99.90;;;;;;5116229;27;20225;-78
2021/01/31 02:51:27;;;;;;;16.57;8.63;;;0.30;99.90;;;;;;5116368;28;20819;-78
2021/01/31 02:54:00;;;;;;;16.33;9.57;;;0.30;99.90;;;;;;5116523;28;20200;-78
2021/01/31 02:56:33;;;;;;;14.50;9.60;;;0.30;99.90;;;;;;5116489;28;20198;-78
2021/01/31 02:59:08;;;;;;;17.80;10.23;;;0.30;99.90;;;;;;5116421;28;20222;-78
2021/01/31 03:01:39;;;;;;;17.23;9.63;;;0.30;99.90;;;;;;5116363;28;20211;-78
2021/01/31 03:04:10;;;;;;;15.00;9.03;;;0.30;99.90;;;;;;5116554;28;20198;-78
2021/01/31 03:06:42;;;;;;;15.47;9.07;;;0.20;99.90;;;;;;5116016;28;20577;-77
2021/01/31 03:09:12;;;;;;;18.57;10.57;;;0.10;99.90;;;;;;5116283;28;20203;-77
2021/01/31 03:11:46;;;;;;;15.23;8.67;;;0.10;99.90;;;;;;5116184;28;20309;-78
2021/01/31 03:14:19;;;;;;;17.83;9.50;;;0.10;99.90;;;;;;5116140;28;20202;-78
2021/01/31 03:16:51;;;;;;;15.33;9.03;;;0.10;99.90;;;;;;5116214;28;20202;-78
2021/01/31 03:19:25;;;;;;;18.93;10.30;;;0.10;99.90;;;;;;5116272;27;20225;-78
2021/01/31 03:21:55;;;;;;;17.37;9.63;;;0.10;99.90;;;;;;5116194;28;20257;-78
2021/01/31 03:24:28;;;;;;;17.97;10.30;;;0.10;99.90;;;;;;5115509;28;20209;-78
2021/01/31 03:26:59;;;;;;;18.17;9.70;;;0.10;99.90;;;;;;5115777;28;20200;-78
2021/01/31 03:29:26;;;;;;;18.47;9.73;;;0.00;99.90;;;;;;5116012;28;20250;-78
2021/01/31 03:31:56;;;;;;;18.47;10.37;;;0.00;99.90;;;;;;5116270;28;20206;-78
2021/01/31 03:34:27;;;;;;;19.73;11.03;;;0.00;99.90;;;;;;5116067;28;20664;-78
2021/01/31 03:36:59;;;;;;;22.10;11.13;;;0.00;99.90;;;;;;5115843;28;20198;-78
2021/01/31 03:39:26;;;;;;;18.53;10.37;;;0.00;99.90;;;;;;5116194;28;20226;-78
2021/01/31 03:41:53;;;;;;;19.63;10.50;;;-0.10;99.90;;;;;;5115240;28;20293;-78
2021/01/31 03:44:19;;;;;;;23.53;12.10;;;-0.10;99.90;;;;;;5116259;28;20229;-78
2021/01/31 03:46:52;;;;;;;19.03;11.50;;;-0.10;99.90;;;;;;5116034;28;20201;-78
2021/01/31 03:49:22;;;;;;;21.07;11.03;;;-0.10;99.90;;;;;;5115709;28;20200;-78
2021/01/31 03:51:50;;;;;;;20.70;11.33;;;-0.10;99.90;;;;;;5115764;28;20194;-78
2021/01/31 03:54:17;;;;;;;18.57;10.67;;;-0.10;99.90;;;;;;5115363;28;20586;-78
2021/01/31 03:56:48;;;;;;;16.33;9.03;;;-0.10;99.90;;;;;;5115049;28;20242;-78
2021/01/31 03:59:19;;;;;;;22.17;11.70;;;-0.20;99.90;;;;;;5114767;28;20234;-78
2021/01/31 04:01:49;;;;;;;20.80;11.73;;;-0.20;99.90;;;;;;5115196;28;20204;-78
2021/01/31 04:04:20;;;;;;;19.87;11.37;;;-0.10;99.90;;;;;;5114578;28;20567;-78
2021/01/31 04:06:51;;;;;;;21.53;12.27;;;-0.10;99.90;;;;;;5115532;28;20230;-78
2021/01/31 04:09:19;;;;;;;20.30;11.10;;;-0.10;99.90;;;;;;5115682;28;20241;-78
2021/01/31 04:11:46;;;;;;;20.93;11.70;;;-0.20;99.90;;;;;;5115134;28;20206;-78
2021/01/31 04:14:19;;;;;;;23.27;11.93;;;-0.20;99.90;;;;;;5114295;28;20265;-78
2021/01/31 04:16:49;;;;;;;25.00;12.50;;;-0.20;99.90;;;;;;5115026;28;20194;-78
2021/01/31 04:19:16;;;;;;;22.00;11.83;;;-0.20;99.90;;;;;;5115123;28;20221;-78
2021/01/31 04:21:42;;;;;;;24.13;11.97;;;-0.10;99.90;;;;;;5115273;28;20317;-79
2021/01/31 04:24:10;;;;;;;22.13;12.30;;;-0.20;99.90;;;;;;5115021;28;20242;-78
2021/01/31 04:26:37;;;;;;;20.93;11.90;;;-0.20;99.90;;;;;;5115039;28;20201;-78
2021/01/31 04:29:04;;;;;;;26.20;12.37;;;-0.20;99.90;;;;;;5114129;28;20247;-79
2021/01/31 04:31:31;;;;;;;21.90;12.17;;;-0.20;99.90;;;;;;5115172;28;20285;-79
2021/01/31 04:33:58;;;;;;;21.97;12.40;;;-0.30;99.90;;;;;;5115275;28;20194;-78
2021/01/31 04:36:26;;;;;;;23.10;12.90;;;-0.30;99.90;;;;;;5114810;28;20667;-79
2021/01/31 04:38:53;;;;;;;23.27;12.97;;;-0.20;99.90;;;;;;5114774;28;20229;-79
2021/01/31 04:41:21;;;;;;;24.63;13.87;;;-0.30;99.90;;;;;;5114718;28;20197;-79
2021/01/31 04:43:51;;;;;;;21.43;12.33;;;-0.30;99.90;;;;;;5113875;28;20198;-79
2021/01/31 04:46:21;;;;;;;21.50;12.53;;;-0.30;99.90;;;;;;5114133;28;20193;-79
2021/01/31 04:48:59;;;;;;;23.67;12.03;;;-0.40;99.90;;;;;;5114702;28;20735;-79
2021/01/31 04:51:39;;;;;;;19.97;11.97;;;-0.40;99.90;;;;;;5115053;27;20190;-78
2021/01/31 04:54:28;;;;;;;22.93;11.63;;;-0.40;99.90;;;;;;5114408;28;20211;-78
2021/01/31 04:57:06;;;;;;;25.67;13.13;;;-0.40;99.90;;;;;;5114633;28;20293;-79
2021/01/31 04:59:36;;;;;;;23.63;12.10;;;-0.40;99.90;;;;;;5114680;28;20237;-79
2021/01/31 05:02:07;;;;;;;21.43;12.53;;;-0.40;99.90;;;;;;5114571;28;20221;-79
2021/01/31 05:04:38;;;;;;;23.23;12.37;;;-0.30;99.90;;;;;;5114440;28;20204;-79
2021/01/31 05:07:07;;;;;;;24.37;12.27;;;-0.40;99.90;;;;;;5113808;28;20285;-79
2021/01/31 05:09:33;;;;;;;25.27;13.20;;;-0.40;99.90;;;;;;5114567;28;20203;-79
2021/01/31 05:12:12;;;;;;;16.13;9.90;;;-0.40;99.90;;;;;;5114183;28;20219;-79
2021/01/31 05:15:10;;;;;;;23.57;13.00;;;-0.50;99.90;;;;;;5115878;28;20659;-79
2021/01/31 05:17:37;;;;;;;20.20;11.33;;;-0.40;99.90;;;;;;5110817;28;20200;-79
2021/01/31 05:20:05;;;;;;;25.85;14.07;;;-0.50;99.90;;;;;;5118383;28;20515;-79
2021/01/31 05:22:37;;;;;;;24.60;12.87;;;-0.50;99.90;;;;;;5118650;28;20667;-79
2021/01/31 05:25:04;;;;;;;22.97;12.07;;;-0.50;99.90;;;;;;5118399;28;20541;-79
2021/01/31 05:27:34;;;;;;;23.93;11.57;;;-0.50;99.90;;;;;;5117640;28;20273;-79
2021/01/31 05:30:00;;;;;;;25.33;13.67;;;-0.50;99.90;;;;;;5118348;28;20623;-80
2021/01/31 05:32:27;;;;;;;23.40;12.33;;;-0.40;99.90;;;;;;5118503;28;20203;-79
2021/01/31 05:34:56;;;;;;;25.50;13.47;;;-0.30;99.90;;;;;;5118731;28;20202;-79
2021/01/31 05:37:26;;;;;;;23.93;13.10;;;-0.40;99.90;;;;;;5118122;28;20209;-79
2021/01/31 05:39:57;;;;;;;24.17;12.97;;;-0.40;99.90;;;;;;5118090;28;20274;-79
2021/01/31 05:42:26;;;;;;;28.83;14.13;;;-0.50;99.90;;;;;;5117718;28;20293;-80
2021/01/31 05:45:06;;;;;;;22.87;12.50;;;-0.50;99.90;;;;;;5118261;28;20279;-79
2021/01/31 05:47:36;;;;;;;22.53;12.63;;;-0.60;99.90;;;;;;5117993;28;20651;-79
2021/01/31 05:50:22;;;;;;;24.27;12.33;;;-0.70;99.90;;;;;;5118368;28;20191;-79
2021/01/31 05:52:48;;;;;;;24.47;13.13;;;-0.70;99.90;;;;;;5118386;28;20281;-79
2021/01/31 05:55:30;;;;;;;26.87;13.47;;;-0.70;99.90;;;;;;5117918;28;20192;-79
2021/01/31 05:58:14;;;;;;;26.80;13.63;;;-0.70;99.90;;;;;;5118011;28;20202;-79
2021/01/31 06:00:42;;;;;;;26.43;13.90;;;-0.70;99.90;;;;;;5118021;27;20305;-79
2021/01/31 06:03:09;;;;;;;28.33;13.70;;;-0.70;99.90;;;;;;5116919;28;20556;-80
2021/01/31 06:05:36;;;;;;;26.93;13.60;;;-0.70;99.90;;;;;;5117809;28;20205;-79
2021/01/31 06:08:08;;;;;;;24.97;13.37;;;-0.70;99.90;;;;;;5117366;28;20191;-79
2021/01/31 06:10:40;;;;;;;28.63;13.63;;;-0.70;99.90;;;;;;5117646;28;20336;-79
2021/01/31 06:13:11;;;;;;;26.73;14.27;;;-0.70;99.90;;;;;;5117454;28;20302;-79
2021/01/31 06:15:51;;;;;;;28.23;14.73;;;-0.70;99.90;;;;;;5117483;28;20247;-79
2021/01/31 06:18:22;;;;;;;25.97;14.10;;;-0.70;99.90;;;;;;5117515;28;20286;-79
2021/01/31 06:20:48;;;;;;;25.87;14.10;;;-0.70;99.90;;;;;;5116769;28;20205;-80
2021/01/31 06:23:31;;;;;;;27.03;14.23;;;-0.70;99.90;;;;;;5117392;28;20198;-80
2021/01/31 06:25:58;;;;;;;26.37;14.73;;;-0.70;99.90;;;;;;5116588;28;20655;-79
2021/01/31 06:28:29;;;;;;;29.43;14.97;;;-0.70;99.90;;;;;;5117148;28;20763;-79
2021/01/31 06:31:28;;;;;;;28.30;12.83;;;-0.80;99.90;;;;;;5117331;28;20203;-80
2021/01/31 06:33:54;;;;;;;29.43;15.77;;;-0.80;99.90;;;;;;5117115;28;20209;-79
2021/01/31 06:36:31;;;;;;;28.23;14.60;;;-0.80;99.90;;;;;;5116953;28;20579;-79
2021/01/31 06:39:07;;;;;;;25.13;13.20;;;-0.80;99.90;;;;;;5116938;28;20236;-80
2021/01/31 06:41:56;;;;;;;24.83;13.97;;;-0.90;99.90;;;;;;5116652;28;20670;-79
2021/01/31 06:44:36;;;;;;;26.50;13.30;;;-0.80;99.90;;;;;;5116322;28;20240;-79
2021/01/31 06:47:19;;;;;;;29.03;15.07;;;-0.80;99.90;;;;;;5116420;28;20233;-79
2021/01/31 06:49:55;;;;;;;24.50;12.33;;;-0.80;99.90;;;;;;5116761;28;20696;-79
2021/01/31 06:52:30;;;;;;;27.40;13.93;;;-0.90;99.90;;;;;;5116672;28;20292;-79
2021/01/31 06:55:23;;;;;;;28.07;14.40;;;-0.90;99.90;;;;;;5116682;28;20293;-79
2021/01/31 06:58:21;;;;;;;25.30;13.10;;;-0.80;99.90;;;;;;5116270;27;20207;-79
2021/01/31 07:01:07;;;;;;;26.40;13.93;;;-0.80;99.90;;;;;;5116666;28;20244;-79
2021/01/31 07:04:32;;;;;;;24.80;13.37;;;-0.90;99.90;;;;;;5116396;28;20663;-79
2021/01/31 07:07:38;;;;;;;27.43;14.90;;;-0.90;99.90;;;;;;5116529;28;20198;-79
2021/01/31 07:10:27;;;;;;;25.37;14.23;;;-0.80;99.90;;;;;;5113275;27;20280;-79
2021/01/31 07:13:08;;;;;;;26.83;13.13;;;-0.80;99.90;;;;;;5116113;28;20209;-79
2021/01/31 07:15:41;;;;;;;26.67;14.47;;;-0.80;99.90;;;;;;5116194;28;20297;-79
2021/01/31 07:18:12;;;;;;;25.93;14.03;;;-0.90;99.90;;;;;;5116164;28;20203;-78
2021/01/31 07:20:44;;;;;;;29.37;14.50;;;-0.80;99.90;;;;;;5115813;28;20227;-79
2021/01/31 07:23:17;;;;;;;25.07;13.70;;;-0.90;99.90;;;;;;5116059;28;20203;-79
2021/01/31 07:25:49;;;;;;;28.93;15.47;;;-0.90;99.90;;;;;;5116091;28;20209;-79
2021/01/31 07:28:22;;;;;;;33.33;14.77;;;-0.90;99.90;;;;;;5115323;28;20568;-79
2021/01/31 07:30:53;;;;;;;29.80;15.00;;;-0.80;99.90;;;;;;5116138;28;20287;-79
2021/01/31 07:33:25;;;;;;;31.10;14.80;;;-0.80;99.90;;;;;;5115770;28;20723;-79
2021/01/31 07:36:00;;;;;;;26.40;14.13;;;-0.80;99.90;;;;;;5115764;28;20203;-79
2021/01/31 07:38:32;;;;;;;28.83;15.80;;;-0.80;99.90;;;;;;5114353;28;20205;-79
2021/01/31 07:41:00;;;;;;;28.83;15.80;;;-0.80;99.90;;;;;;5115226;28;20203;-79
2021/01/31 07:43:30;;;;;;;26.70;14.00;;;-0.80;99.90;;;;;;5115101;28;20719;-79
2021/01/31 07:46:00;;;;;;;27.57;13.93;;;-0.80;99.90;;;;;;5115171;28;20190;-79
2021/01/31 07:48:59;;;;;;;27.63;14.20;;;-0.80;99.90;;;;;;5115226;28;20195;-79
2021/01/31 07:52:11;;;;;;;31.17;16.47;;;-0.70;99.90;;;;;;5115120;28;20206;-79
2021/01/31 07:54:39;;;;;;;30.10;15.67;;;-0.70;99.90;;;;;;5114941;28;20218;-79
2021/01/31 07:57:29;;;;;;;26.73;13.83;;;-0.60;99.90;;;;;;5114945;28;20203;-79
2021/01/31 07:59:56;;;;;;;25.60;13.90;;;-0.50;99.90;;;;;;5114992;28;20233;-79
2021/01/31 08:02:41;;;;;;;27.37;14.50;;;-0.60;99.90;;;;;;5114399;28;20234;-79
2021/01/31 08:05:12;;;;;;;32.90;15.63;;;-0.50;99.90;;;;;;5114675;28;20194;-79
2021/01/31 08:08:02;;;;;;;29.83;15.17;;;-0.40;99.90;;;;;;5114364;28;20645;-79
2021/01/31 08:10:56;;;;;;;30.30;14.87;;;-0.40;99.90;;;;;;5122203;27;20196;-79
2021/01/31 08:13:37;;;;;;;26.90;14.30;;;-0.30;99.90;;;;;;5098275;27;20219;-79
2021/01/31 08:16:39;;;;;;;26.77;14.70;;;-0.40;99.90;;;;;;5134384;27;20194;-79
2021/01/31 08:19:11;;;;;;;31.33;15.03;;;-0.30;99.90;;;;;;5134382;27;20686;-79
2021/01/31 08:21:51;;;;;;;23.90;13.50;;;-0.30;99.90;;;;;;5121238;27;20290;-79
2021/01/31 08:24:51;;;;;;;25.23;13.87;;;-0.20;99.90;;;;;;5121613;27;20201;-79
2021/01/31 08:27:40;;;;;;;27.40;17.77;;;-0.10;99.90;;;;;;5119566;27;20572;-79
2021/01/31 08:30:17;;;;;;;30.70;14.70;;;-0.20;99.90;;;;;;5123757;27;20206;-78
2021/01/31 08:33:18;;;;;;;21.93;13.10;;;-0.20;99.90;;;;;;5122754;27;20216;-79
2021/01/31 08:36:00;;;;;;;23.73;13.63;;;-0.20;99.90;;;;;;5123178;27;20193;-79
2021/01/31 08:38:42;;;;;;;23.77;13.40;;;-0.10;99.90;;;;;;5123834;27;20209;-79
2021/01/31 08:41:19;;;;;;;26.30;13.20;;;-0.20;99.90;;;;;;5124076;27;20684;-79
2021/01/31 08:43:48;;;;;;;20.10;10.30;;;-0.20;99.90;;;;;;5124492;27;20315;-79
2021/01/31 08:46:17;;;;;;;25.13;11.77;;;-0.20;99.90;;;;;;5120286;27;20194;-79
2021/01/31 08:48:50;;;;;;;16.33;7.77;;;-0.20;99.90;;;;;;5123179;27;20228;-79
2021/01/31 08:51:19;;;;;;;19.67;10.97;;;-0.20;99.90;;;;;;5120669;27;20206;-79
2021/01/31 08:54:01;;;;;;;25.90;12.37;;;-0.30;99.90;;;;;;5122788;27;20190;-79
2021/01/31 08:56:32;;;;;;;19.30;10.60;;;-0.20;99.90;;;;;;5123297;27;20202;-79
2021/01/31 08:59:00;;;;;;;24.17;11.93;;;-0.10;99.90;;;;;;5121028;27;20687;-79
2021/01/31 09:01:27;;;;;;;23.13;11.47;;;0.00;99.90;;;;;;5123108;27;20196;-79
2021/01/31 09:03:53;;;;;;;19.87;11.17;;;0.00;99.90;;;;;;5123950;27;20201;-78
2021/01/31 09:06:21;;;;;;;26.07;12.70;;;0.10;99.90;;;;;;5123944;27;20289;-78
2021/01/31 09:08:54;;;;;;;27.17;13.73;;;0.20;99.90;;;;;;5123367;27;20189;-79
2021/01/31 09:11:23;;;;;;;25.13;12.93;;;0.20;99.90;;;;;;5122173;27;20274;-79
2021/01/31 09:13:49;;;;;;;23.10;12.90;;;0.30;99.90;;;;;;5122253;28;20198;-79
2021/01/31 09:16:21;;;;;;;22.90;12.53;;;0.30;99.90;;;;;;5124885;27;20282;-79
2021/01/31 09:19:02;;;;;;;25.17;12.77;;;0.30;99.90;;;;;;5124845;28;20281;-78
2021/01/31 09:21:32;;;;;;;25.80;12.93;;;0.20;99.90;;;;;;5124665;28;20198;-79
2021/01/31 09:24:01;;;;;;;23.80;12.63;;;0.30;99.90;;;;;;5121429;28;20194;-78
2021/01/31 09:26:28;;;;;;;23.03;13.13;;;0.40;99.90;;;;;;5122834;28;20335;-79
2021/01/31 09:28:57;;;;;;;27.03;13.33;;;0.50;99.90;;;;;;5120410;28;20235;-78
2021/01/31 09:31:27;;;;;;;25.47;12.20;;;0.60;99.90;;;;;;5122890;28;20229;-79
2021/01/31 09:33:58;;;;;;;20.90;11.50;;;0.70;99.90;;;;;;5125070;28;20190;-79
2021/01/31 09:36:27;;;;;;;23.20;11.53;;;0.70;99.90;;;;;;5124380;28;20285;-79
2021/01/31 09:38:56;;;;;;;24.00;12.20;;;0.70;99.90;;;;;;5122639;27;20209;-79
2021/01/31 09:41:24;;;;;;;21.57;12.10;;;0.80;99.90;;;;;;5123722;28;20190;-79
2021/01/31 09:43:54;;;;;;;25.77;11.77;;;0.90;99.90;;;;;;5124781;28;20192;-79
2021/01/31 09:46:24;;;;;;;22.50;10.67;;;1.00;99.90;;;;;;5122612;28;20194;-78
2021/01/31 09:49:02;;;;;;;23.60;11.10;;;1.20;99.90;;;;;;5121780;27;20199;-79
2021/01/31 09:51:30;;;;;;;19.83;10.03;;;1.20;99.90;;;;;;5114406;28;20292;-79
2021/01/31 09:54:13;;;;;;;21.30;12.03;;;1.40;99.90;;;;;;5118721;28;20197;-79
2021/01/31 09:56:41;;;;;;;22.67;12.43;;;1.50;99.90;;;;;;5134281;27;20666;-78
2021/01/31 09:59:24;;;;;;;21.60;11.30;;;1.60;99.90;;;;;;5134182;28;20579;-78
2021/01/31 10:01:53;;;;;;;21.30;11.03;;;1.70;99.90;;;;;;5135810;27;20201;-78
2021/01/31 10:04:25;;;;;;;21.37;10.60;;;1.60;99.90;;;;;;5137728;27;20205;-78
2021/01/31 10:07:00;;;;;;;22.93;12.27;;;1.60;99.90;;;;;;5137412;27;20633;-79
2021/01/31 10:09:31;;;;;;;22.83;12.30;;;1.50;99.90;;;;;;5137506;27;20202;-79
2021/01/31 10:12:24;;;;;;;19.90;10.73;;;1.60;99.90;;;;;;5137677;27;20287;-79
2021/01/31 10:14:52;;;;;;;22.83;11.20;;;1.70;99.90;;;;;;5136900;27;20336;-79
2021/01/31 10:17:21;;;;;;;21.07;11.00;;;1.70;99.90;;;;;;5112614;27;20241;-79
2021/01/31 10:20:28;;;;;;;22.37;11.77;;;1.80;99.90;;;;;;5114311;27;20219;-79
2021/01/31 10:22:57;;;;;;;21.97;12.43;;;1.70;99.90;;;;;;5124198;27;20206;-79
2021/01/31 10:25:23;;;;;;;21.53;11.87;;;1.80;99.90;;;;;;5127302;27;20197;-78
2021/01/31 10:27:50;;;;;;;24.73;11.80;;;1.90;99.90;;;;;;5119900;27;20746;-78
2021/01/31 10:30:21;;;;;;;19.30;10.40;;;1.90;99.90;;;;;;5116093;27;20732;-79
2021/01/31 10:32:47;;;;;;;21.00;11.20;;;2.00;99.90;;;;;;5121432;27;20200;-79
2021/01/31 10:35:28;;;;;;;20.80;11.03;;;2.10;99.90;;;;;;5125463;27;20246;-79
2021/01/31 10:37:55;;;;;;;21.40;11.37;;;2.10;99.90;;;;;;5124838;27;20195;-78
2021/01/31 10:40:22;;;;;;;21.70;10.03;;;2.20;99.90;;;;;;5124356;27;20215;-78
2021/01/31 10:42:48;;;;;;;22.87;10.50;;;2.20;99.90;;;;;;5127456;27;20189;-78
2021/01/31 10:45:18;;;;;;;19.37;11.03;;;2.20;99.90;;;;;;5136627;27;20190;-78
2021/01/31 10:47:45;;;;;;;19.77;11.00;;;2.20;99.90;;;;;;5121912;27;20211;-78
2021/01/31 10:50:13;;;;;;;22.93;11.50;;;2.20;99.90;;;;;;5125640;27;20199;-78
2021/01/31 10:52:41;;;;;;;19.90;10.83;;;2.20;99.90;;;;;;5120813;27;20213;-78
2021/01/31 10:55:09;;;;;;;23.80;11.07;;;2.20;99.90;;;;;;5125412;27;20674;-78
2021/01/31 10:57:36;;;;;;;17.40;10.20;;;2.20;99.90;;;;;;5126142;27;20231;-78
2021/01/31 11:00:05;;;;;;;21.90;12.10;;;2.20;99.90;;;;;;5121605;27;20222;-78
2021/01/31 11:02:32;;;;;;;20.13;11.33;;;2.30;99.90;;;;;;5124834;27;20194;-78
2021/01/31 11:04:58;;;;;;;22.00;11.97;;;2.30;99.90;;;;;;5125958;27;20195;-78
2021/01/31 11:07:24;;;;;;;19.60;10.50;;;2.40;99.90;;;;;;5120379;27;20206;-78
2021/01/31 11:09:51;;;;;;;21.10;11.03;;;2.30;99.90;;;;;;5129550;27;20281;-77
2021/01/31 11:12:18;;;;;;;19.93;11.10;;;2.50;99.90;;;;;;5119137;27;20668;-78
2021/01/31 11:14:44;;;;;;;23.87;12.80;;;2.40;99.90;;;;;;5121027;27;20230;-77
2021/01/31 11:17:11;;;;;;;22.97;11.73;;;2.40;99.90;;;;;;5123882;27;20221;-78
2021/01/31 11:19:37;;;;;;;19.80;10.87;;;2.50;99.90;;;;;;5125490;27;20274;-78
2021/01/31 11:22:03;;;;;;;22.80;12.03;;;2.60;99.90;;;;;;5123352;27;20618;-77
2021/01/31 11:24:30;;;;;;;22.17;11.47;;;2.60;99.90;;;;;;5125156;27;20278;-78
2021/01/31 11:26:57;;;;;;;18.80;10.43;;;2.50;99.90;;;;;;5125238;27;20719;-78
2021/01/31 11:29:23;;;;;;;21.63;11.00;;;2.50;99.90;;;;;;5123523;27;20202;-78
2021/01/31 11:31:50;;;;;;;23.53;11.60;;;2.40;99.90;;;;;;5124362;27;20668;-77
2021/01/31 11:34:16;;;;;;;21.80;11.67;;;2.50;99.90;;;;;;5122832;27;20216;-78
2021/01/31 11:36:42;;;;;;;21.37;11.83;;;2.70;99.90;;;;;;5124421;27;20203;-77
2021/01/31 11:39:09;;;;;;;23.07;11.33;;;2.90;99.90;;;;;;5120379;27;20671;-77
2021/01/31 11:41:35;;;;;;;21.10;10.63;;;2.90;99.90;;;;;;5125494;27;20201;-77
2021/01/31 11:44:03;;;;;;;20.37;11.23;;;2.90;99.90;;;;;;5126033;27;20202;-77
2021/01/31 11:46:29;;;;;;;20.13;10.97;;;2.90;99.90;;;;;;5115418;27;20278;-77
2021/01/31 11:48:56;;;;;;;20.00;11.03;;;2.90;99.90;;;;;;5114428;28;20190;-77
2021/01/31 11:51:22;;;;;;;19.70;10.73;;;2.70;99.90;;;;;;5114483;28;20656;-77
2021/01/31 11:53:49;;;;;;;19.43;10.77;;;2.60;99.90;;;;;;5114497;28;20547;-77
2021/01/31 11:56:15;;;;;;;19.00;10.50;;;2.70;99.90;;;;;;5114669;28;20197;-77
2021/01/31 11:58:41;;;;;;;22.63;11.47;;;2.70;99.90;;;;;;5114628;28;20611;-77
2021/01/31 12:01:12;;;;;;;20.03;10.53;;;2.80;99.90;;;;;;5114281;28;20670;-77
2021/01/31 12:03:38;;;;;;;22.43;11.23;;;2.80;99.90;;;;;;5114192;28;20209;-77
2021/01/31 12:06:05;;;;;;;18.07;10.50;;;2.90;99.90;;;;;;5112291;28;20220;-77
2021/01/31 12:08:33;;;;;;;20.80;11.00;;;2.80;99.90;;;;;;5113546;28;20547;-78
2021/01/31 12:11:00;;;;;;;20.57;10.77;;;2.90;99.90;;;;;;5113471;28;20198;-77
2021/01/31 12:13:26;;;;;;;23.00;11.90;;;3.00;99.90;;;;;;5112751;28;20213;-77
2021/01/31 12:15:53;;;;;;;22.47;11.60;;;3.20;99.90;;;;;;5113467;28;20378;-77
2021/01/31 12:18:20;;;;;;;18.90;10.50;;;3.30;99.90;;;;;;5114697;27;20207;-77
2021/01/31 12:20:47;;;;;;;17.97;10.47;;;3.10;99.90;;;;;;5122358;27;20648;-77
2021/01/31 12:23:13;;;;;;;19.40;10.87;;;3.00;99.90;;;;;;5124125;27;20669;-77
2021/01/31 12:25:40;;;;;;;17.57;9.67;;;3.00;99.90;;;;;;5123700;27;20198;-79
2021/01/31 12:28:06;;;;;;;21.43;11.17;;;2.90;99.90;;;;;;5119324;27;20291;-77
2021/01/31 12:30:33;;;;;;;17.47;9.77;;;2.80;99.90;;;;;;5124567;27;20295;-77
2021/01/31 12:33:00;;;;;;;17.40;10.00;;;3.00;99.90;;;;;;5123121;27;20578;-78
2021/01/31 12:35:29;;;;;;;19.57;10.30;;;3.10;99.90;;;;;;5112903;27;20206;-77
2021/01/31 12:37:56;;;;;;;20.53;10.97;;;3.00;99.90;;;;;;5132221;27;20198;-77
2021/01/31 12:40:25;;;;;;;18.87;11.00;;;3.40;99.90;;;;;;5126747;27;20233;-77
2021/01/31 12:42:51;;;;;;;18.43;10.30;;;3.70;99.90;;;;;;5116064;28;20346;-78
2021/01/31 12:45:19;;;;;;;19.03;10.77;;;3.80;99.90;;;;;;5123402;27;20312;-78
2021/01/31 12:47:46;;;;;;;18.77;10.70;;;3.90;99.90;;;;;;5112701;27;20208;-77
2021/01/31 12:50:15;;;;;;;17.73;9.73;;;3.80;99.90;;;;;;5123996;27;20294;-77
2021/01/31 12:52:43;;;;;;;18.77;10.23;;;3.80;99.90;;;;;;5119925;27;20286;-77
2021/01/31 12:55:11;;;;;;;20.30;10.60;;;3.90;99.90;;;;;;5122993;27;20190;-77
2021/01/31 12:57:38;;;;;;;20.43;11.37;;;3.90;99.90;;;;;;5122948;27;20196;-77
2021/01/31 13:00:06;;;;;;;17.07;10.50;;;3.80;99.90;;;;;;5121809;27;20254;-78